createdAt,value
2023-05-14T00:00:32.491Z,11.85
2023-05-14T00:02:59.748Z,12.17
2023-05-14T00:05:27.133Z,12.23
2023-05-14T00:07:54.164Z,11.94
2023-05-14T00:10:22.227Z,12.02
2023-05-14T00:12:51.084Z,12.05
2023-05-14T00:15:18.482Z,12.16
2023-05-14T00:17:45.806Z,11.26
2023-05-14T00:20:12.902Z,11.56
2023-05-14T00:22:40.647Z,12.16
2023-05-14T00:25:08.569Z,11.83
2023-05-14T00:27:37.926Z,12.04
2023-05-14T00:30:07.088Z,12.18
2023-05-14T00:32:34.556Z,12.20
2023-05-14T00:35:03.633Z,12.16
2023-05-14T00:37:30.774Z,12.20
2023-05-14T00:40:00.493Z,11.68
2023-05-14T00:42:27.527Z,11.97
2023-05-14T00:44:54.644Z,12.15
2023-05-14T00:47:21.746Z,12.07
2023-05-14T00:49:48.897Z,11.88
2023-05-14T00:52:17.083Z,11.68
2023-05-14T00:54:46.926Z,11.94
2023-05-14T00:57:14.212Z,12.18
2023-05-14T00:59:42.793Z,11.88
2023-05-14T01:02:10.069Z,12.08
2023-05-14T01:04:38.646Z,11.77
2023-05-14T01:07:32.183Z,12.16
2023-05-14T01:10:17.792Z,12.16
2023-05-14T01:12:51.365Z,12.09
2023-05-14T01:15:18.281Z,12.12
2023-05-14T01:17:59.729Z,11.56
2023-05-14T01:20:27.374Z,11.99
2023-05-14T01:22:54.481Z,11.89
2023-05-14T01:25:21.676Z,11.99
2023-05-14T01:28:17.624Z,12.01
2023-05-14T01:30:58.803Z,12.01
2023-05-14T01:33:29.532Z,11.85
2023-05-14T01:35:56.813Z,11.28
2023-05-14T01:38:24.523Z,11.86
2023-05-14T01:40:52.673Z,11.84
2023-05-14T01:43:21.269Z,12.03
2023-05-14T01:45:48.417Z,11.81
2023-05-14T01:48:15.834Z,12.08
2023-05-14T01:50:42.959Z,12.09
2023-05-14T01:53:10.011Z,10.77
2023-05-14T01:55:37.140Z,11.21
2023-05-14T01:58:04.309Z,11.50
2023-05-14T02:00:31.790Z,11.13
2023-05-14T02:02:58.998Z,11.90
2023-05-14T02:05:26.181Z,11.93
2023-05-14T02:07:54.550Z,11.89
2023-05-14T02:10:21.795Z,12.12
2023-05-14T02:12:50.038Z,11.99
2023-05-14T02:15:17.302Z,11.99
2023-05-14T02:17:44.401Z,11.87
2023-05-14T02:20:11.888Z,11.59
2023-05-14T02:22:38.970Z,11.79
2023-05-14T02:25:06.506Z,11.86
2023-05-14T02:27:33.891Z,12.03
2023-05-14T02:30:01.210Z,11.80
2023-05-14T02:32:28.697Z,11.63
2023-05-14T02:34:55.895Z,12.06
2023-05-14T02:37:23.049Z,12.04
2023-05-14T02:39:50.188Z,11.71
2023-05-14T02:42:17.269Z,11.62
2023-05-14T02:44:44.276Z,12.07
2023-05-14T02:47:11.414Z,11.88
2023-05-14T02:49:38.823Z,12.05
2023-05-14T02:52:06.767Z,11.87
2023-05-14T02:54:33.827Z,12.03
2023-05-14T02:57:01.057Z,11.07
2023-05-14T02:59:28.301Z,11.70
2023-05-14T03:01:56.002Z,11.51
2023-05-14T03:04:23.520Z,11.46
2023-05-14T03:06:50.600Z,11.69
2023-05-14T03:09:17.619Z,11.60
2023-05-14T03:11:44.808Z,11.36
2023-05-14T03:14:12.043Z,11.35
2023-05-14T03:16:40.313Z,11.26
2023-05-14T03:19:07.561Z,11.67
2023-05-14T03:21:34.813Z,11.67
2023-05-14T03:24:02.098Z,11.48
2023-05-14T03:26:29.246Z,11.36
2023-05-14T03:28:56.360Z,11.49
2023-05-14T03:31:23.535Z,11.71
2023-05-14T03:33:50.636Z,11.31
2023-05-14T03:36:17.757Z,11.11
2023-05-14T03:38:44.779Z,11.84
2023-05-14T03:41:11.882Z,11.44
2023-05-14T03:43:38.959Z,11.84
2023-05-14T03:46:06.033Z,11.88
2023-05-14T03:48:33.297Z,11.91
2023-05-14T03:51:00.421Z,11.53
2023-05-14T03:53:28.505Z,11.64
2023-05-14T03:55:55.434Z,11.38
2023-05-14T03:58:22.348Z,11.86
2023-05-14T04:00:49.498Z,11.35
2023-05-14T04:03:16.936Z,11.55
2023-05-14T04:05:44.113Z,11.28
2023-05-14T04:08:11.243Z,11.43
2023-05-14T04:10:38.243Z,11.69
2023-05-14T04:13:05.270Z,11.52
2023-05-14T04:15:39.518Z,11.80
2023-05-14T04:18:06.765Z,11.87
2023-05-14T04:20:34.128Z,11.46
2023-05-14T04:23:01.144Z,11.76
2023-05-14T04:25:28.313Z,11.69
2023-05-14T04:27:55.383Z,11.34
2023-05-14T04:30:22.899Z,11.85
2023-05-14T04:32:50.314Z,11.97
2023-05-14T04:35:17.343Z,11.57
2023-05-14T04:37:44.420Z,11.60
2023-05-14T04:40:11.606Z,11.81
2023-05-14T04:42:39.282Z,11.95
2023-05-14T04:45:07.021Z,11.96
2023-05-14T04:47:34.162Z,11.76
2023-05-14T04:50:01.470Z,11.28
2023-05-14T04:52:28.559Z,11.71
2023-05-14T04:54:56.995Z,10.97
2023-05-14T04:57:24.166Z,11.94
2023-05-14T04:59:51.130Z,11.91
2023-05-14T05:02:18.328Z,11.86
2023-05-14T05:04:47.235Z,10.70
2023-05-14T05:07:14.763Z,10.87
2023-05-14T05:09:42.877Z,12.17
2023-05-14T05:12:10.240Z,12.16
2023-05-14T05:14:37.336Z,12.20
2023-05-14T05:17:04.495Z,11.83
2023-05-14T05:19:42.578Z,11.32
2023-05-14T05:22:11.049Z,12.23
2023-05-14T05:24:38.070Z,12.28
2023-05-14T05:27:05.746Z,11.83
2023-05-14T05:29:32.811Z,12.12
2023-05-14T05:32:00.052Z,12.08
2023-05-14T05:34:27.460Z,12.31
2023-05-14T05:36:54.531Z,12.22
2023-05-14T05:39:21.623Z,12.28
2023-05-14T05:41:48.788Z,12.10
2023-05-14T05:44:15.909Z,12.06
2023-05-14T05:46:42.960Z,11.93
2023-05-14T05:49:10.017Z,11.82
2023-05-14T05:51:37.055Z,11.97
2023-05-14T05:54:04.286Z,12.40
2023-05-14T05:56:31.388Z,12.46
2023-05-14T05:58:58.484Z,12.51
2023-05-14T06:01:25.636Z,12.50
2023-05-14T06:03:53.605Z,12.19
2023-05-14T06:06:21.971Z,11.82
2023-05-14T06:08:49.314Z,12.39
2023-05-14T06:11:17.151Z,12.52
2023-05-14T06:13:44.244Z,12.35
2023-05-14T06:16:11.574Z,12.51
2023-05-14T06:18:38.730Z,12.09
2023-05-14T06:21:06.178Z,12.46
2023-05-14T06:23:33.617Z,12.00
2023-05-14T06:26:00.701Z,12.45
2023-05-14T06:28:27.692Z,12.32
2023-05-14T06:30:54.704Z,12.29
2023-05-14T06:33:29.667Z,12.44
2023-05-14T06:35:57.274Z,12.53
2023-05-14T06:38:24.364Z,12.22
2023-05-14T06:40:51.988Z,12.25
2023-05-14T06:43:19.232Z,12.46
2023-05-14T06:45:49.311Z,12.67
2023-05-14T06:48:18.921Z,12.04
2023-05-14T06:50:49.884Z,12.34
2023-05-14T06:53:17.285Z,12.28
2023-05-14T06:55:45.187Z,12.38
2023-05-14T06:58:12.141Z,12.06
2023-05-14T07:00:40.309Z,12.08
2023-05-14T07:03:07.436Z,12.13
2023-05-14T07:05:34.669Z,12.12
2023-05-14T07:08:01.697Z,12.09
2023-05-14T07:10:28.776Z,12.45
2023-05-14T07:12:55.843Z,12.07
2023-05-14T07:15:22.789Z,12.46
2023-05-14T07:17:49.839Z,12.06
2023-05-14T07:20:17.012Z,12.25
2023-05-14T07:22:44.080Z,12.53
2023-05-14T07:25:11.227Z,12.57
2023-05-14T07:27:38.372Z,12.24
2023-05-14T07:30:05.949Z,12.29
2023-05-14T07:32:32.885Z,12.33
2023-05-14T07:35:00.417Z,12.44
2023-05-14T07:37:27.763Z,12.37
2023-05-14T07:39:54.860Z,12.31
2023-05-14T07:42:34.389Z,12.26
2023-05-14T07:45:03.923Z,12.81
2023-05-14T07:47:35.527Z,12.81
2023-05-14T07:50:02.631Z,12.84
2023-05-14T07:52:29.985Z,12.68
2023-05-14T07:54:57.028Z,12.79
2023-05-14T07:57:24.021Z,12.99
2023-05-14T07:59:51.114Z,12.82
2023-05-14T08:02:18.279Z,13.05
2023-05-14T08:04:45.904Z,12.87
2023-05-14T08:07:12.914Z,13.08
2023-05-14T08:09:40.134Z,13.16
2023-05-14T08:12:07.757Z,12.82
2023-05-14T08:14:35.070Z,13.10
2023-05-14T08:17:02.156Z,13.08
2023-05-14T08:19:29.343Z,13.01
2023-05-14T08:21:56.443Z,13.16
2023-05-14T08:24:23.425Z,12.86
2023-05-14T08:26:50.366Z,12.89
2023-05-14T08:29:17.462Z,13.20
2023-05-14T08:31:44.545Z,12.83
2023-05-14T08:34:11.593Z,12.63
2023-05-14T08:36:41.521Z,12.92
2023-05-14T08:39:08.952Z,13.33
2023-05-14T08:41:37.658Z,13.30
2023-05-14T08:44:12.297Z,13.31
2023-05-14T08:46:39.888Z,13.21
2023-05-14T08:49:13.367Z,13.27
2023-05-14T08:51:41.392Z,12.91
2023-05-14T08:54:08.665Z,12.89
2023-05-14T08:56:36.386Z,13.04
2023-05-14T08:59:03.501Z,12.96
2023-05-14T09:01:30.943Z,12.59
2023-05-14T09:03:58.877Z,12.98
2023-05-14T09:06:27.508Z,13.25
2023-05-14T09:08:54.992Z,13.28
2023-05-14T09:11:22.148Z,13.29
2023-05-14T09:13:49.171Z,12.95
2023-05-14T09:16:18.406Z,13.29
2023-05-14T09:18:46.002Z,13.34
2023-05-14T09:21:16.178Z,13.40
2023-05-14T09:23:44.640Z,13.43
2023-05-14T09:26:12.237Z,13.38
2023-05-14T09:28:43.789Z,13.30
2023-05-14T09:31:11.100Z,13.28
2023-05-14T09:33:38.100Z,13.45
2023-05-14T09:36:05.311Z,13.34
2023-05-14T09:38:33.324Z,13.48
2023-05-14T09:41:01.207Z,13.43
2023-05-14T09:43:28.553Z,13.32
2023-05-14T09:45:55.755Z,13.29
2023-05-14T09:48:23.222Z,13.00
2023-05-14T09:50:51.778Z,13.06
2023-05-14T09:53:19.457Z,13.34
2023-05-14T09:55:47.157Z,13.36
2023-05-14T09:58:16.934Z,13.58
2023-05-14T10:00:46.568Z,12.93
2023-05-14T10:03:17.932Z,13.63
2023-05-14T10:05:49.525Z,13.66
2023-05-14T10:08:25.527Z,13.70
2023-05-14T10:10:54.590Z,13.81
2023-05-14T10:13:28.126Z,13.53
2023-05-14T10:16:16.781Z,14.00
2023-05-14T10:18:48.744Z,13.97
2023-05-14T10:21:18.281Z,13.90
2023-05-14T10:23:49.223Z,14.02
2023-05-14T10:26:17.096Z,13.79
2023-05-14T10:28:44.540Z,13.81
2023-05-14T10:31:11.896Z,13.58
2023-05-14T10:33:50.670Z,13.72
2023-05-14T10:36:18.860Z,13.90
2023-05-14T10:38:47.578Z,14.28
2023-05-14T10:41:18.104Z,13.72
2023-05-14T10:43:45.444Z,14.06
2023-05-14T10:46:14.000Z,14.29
2023-05-14T10:48:44.542Z,14.28
2023-05-14T10:51:12.829Z,14.65
2023-05-14T10:53:42.562Z,14.56
2023-05-14T10:56:14.454Z,14.51
2023-05-14T10:58:45.335Z,14.80
2023-05-14T11:01:13.949Z,14.36
2023-05-14T11:03:43.856Z,14.35
2023-05-14T11:06:13.628Z,14.70
2023-05-14T11:08:42.882Z,15.14
2023-05-14T11:11:10.999Z,14.92
2023-05-14T11:13:38.606Z,15.18
2023-05-14T11:18:42.044Z,14.85
2023-05-14T11:21:09.241Z,15.16
2023-05-14T11:23:36.597Z,15.24
2023-05-14T11:26:03.965Z,15.57
2023-05-14T11:28:31.041Z,15.48
2023-05-14T11:30:58.202Z,15.69
2023-05-14T11:33:28.125Z,15.85
2023-05-14T11:35:55.111Z,15.89
2023-05-14T11:38:22.265Z,15.48
2023-05-14T11:40:56.841Z,15.72
2023-05-14T11:43:24.401Z,16.14
2023-05-14T11:45:53.097Z,16.35
2023-05-14T11:48:21.596Z,16.23
2023-05-14T11:50:50.241Z,16.54
2023-05-14T11:53:28.587Z,16.02
2023-05-14T11:55:57.930Z,16.39
2023-05-14T11:58:25.706Z,16.89
2023-05-14T12:00:53.745Z,17.02
2023-05-14T12:03:30.982Z,16.97
2023-05-14T12:06:02.800Z,17.15
2023-05-14T12:08:32.375Z,17.25
2023-05-14T12:11:00.978Z,17.27
2023-05-14T12:13:31.837Z,17.27
2023-05-14T12:16:02.782Z,17.10
2023-05-14T12:18:31.652Z,17.30
2023-05-14T12:21:08.504Z,17.32
2023-05-14T12:23:35.947Z,16.97
2023-05-14T12:26:06.513Z,17.30
2023-05-14T12:28:36.923Z,16.81
2023-05-14T12:31:05.170Z,16.78
2023-05-14T12:33:32.204Z,17.09
2023-05-14T12:36:14.098Z,16.97
2023-05-14T12:38:48.247Z,16.72
2023-05-14T12:41:15.334Z,16.81
2023-05-14T12:43:47.525Z,16.83
2023-05-14T12:46:14.877Z,16.76
2023-05-14T12:48:41.931Z,16.87
2023-05-14T12:51:09.138Z,16.80
2023-05-14T12:53:36.042Z,16.37
2023-05-14T12:56:03.268Z,16.61
2023-05-14T12:58:30.376Z,16.43
2023-05-14T13:00:57.434Z,16.23
2023-05-14T13:03:24.875Z,16.54
2023-05-14T13:05:52.956Z,16.55
2023-05-14T13:08:21.755Z,16.58
2023-05-14T13:10:48.799Z,16.59
2023-05-14T13:13:16.352Z,16.48
2023-05-14T13:15:46.951Z,16.05
2023-05-14T13:18:14.730Z,16.47
2023-05-14T13:20:43.188Z,16.21
2023-05-14T13:23:10.762Z,16.21
2023-05-14T13:25:37.776Z,16.32
2023-05-14T13:28:04.978Z,16.46
2023-05-14T13:30:32.540Z,16.24
2023-05-14T13:33:00.284Z,16.41
2023-05-14T13:35:27.264Z,16.19
2023-05-14T13:37:54.203Z,16.55
2023-05-14T13:40:21.259Z,16.57
2023-05-14T13:42:48.163Z,16.31
2023-05-14T13:45:15.125Z,16.45
2023-05-14T13:47:42.342Z,16.66
2023-05-14T13:50:09.445Z,16.63
2023-05-14T13:52:36.733Z,16.56
2023-05-14T13:55:04.197Z,16.66
2023-05-14T13:57:31.378Z,16.42
2023-05-14T13:59:58.417Z,16.41
2023-05-14T14:02:25.492Z,16.65
2023-05-14T14:04:52.575Z,16.60
2023-05-14T14:07:19.523Z,16.11
2023-05-14T14:09:46.508Z,15.97
2023-05-14T14:12:13.565Z,15.95
2023-05-14T14:14:41.146Z,16.40
2023-05-14T14:17:09.293Z,16.13
2023-05-14T14:19:36.491Z,16.00
2023-05-14T14:22:03.752Z,16.41
2023-05-14T14:24:30.814Z,16.44
2023-05-14T14:26:58.055Z,16.43
2023-05-14T14:29:25.108Z,16.68
2023-05-14T14:31:52.368Z,16.35
2023-05-14T14:34:19.460Z,16.57
2023-05-14T14:36:46.450Z,16.68
2023-05-14T14:39:13.460Z,16.41
2023-05-14T14:41:40.461Z,16.58
2023-05-14T14:44:07.405Z,16.61
2023-05-14T14:46:34.428Z,16.52
2023-05-14T14:49:01.541Z,16.78
2023-05-14T14:51:28.522Z,16.45
2023-05-14T14:53:55.704Z,16.64
2023-05-14T14:56:22.765Z,16.56
2023-05-14T14:58:49.658Z,16.41
2023-05-14T15:01:17.149Z,16.58
2023-05-14T15:03:45.897Z,16.55
2023-05-14T15:06:12.842Z,15.99
2023-05-14T15:08:40.081Z,16.40
2023-05-14T15:11:08.205Z,16.14
2023-05-14T15:13:35.277Z,16.03
2023-05-14T15:16:02.325Z,16.30
2023-05-14T15:18:29.390Z,16.17
2023-05-14T15:20:56.718Z,15.73
2023-05-14T15:23:23.724Z,16.32
2023-05-14T15:25:50.804Z,15.90
2023-05-14T15:28:18.061Z,15.89
2023-05-14T15:30:47.396Z,15.61
2023-05-14T15:33:19.304Z,15.13
2023-05-14T15:35:46.713Z,15.40
2023-05-14T15:38:13.859Z,15.56
2023-05-14T15:40:41.136Z,15.33
2023-05-14T15:43:08.161Z,15.59
2023-05-14T15:45:35.135Z,15.39
2023-05-14T15:48:02.423Z,15.61
2023-05-14T15:50:29.409Z,15.67
2023-05-14T15:52:56.428Z,15.52
2023-05-14T15:55:23.519Z,15.61
2023-05-14T15:57:50.535Z,15.57
2023-05-14T16:00:17.999Z,15.50
2023-05-14T16:02:45.173Z,15.23
2023-05-14T16:05:12.251Z,15.42
2023-05-14T16:07:39.745Z,15.16
2023-05-14T16:10:07.237Z,15.35
2023-05-14T16:12:34.556Z,15.02
2023-05-14T16:15:01.639Z,15.22
2023-05-14T16:17:29.746Z,15.28
2023-05-14T16:19:56.755Z,15.30
2023-05-14T16:22:23.716Z,15.41
2023-05-14T16:24:50.946Z,15.36
2023-05-14T16:27:19.266Z,15.13
2023-05-14T16:29:46.548Z,14.97
2023-05-14T16:32:13.722Z,15.44
2023-05-14T16:34:40.807Z,15.43
2023-05-14T16:37:09.290Z,15.34
2023-05-14T16:39:37.952Z,15.36
2023-05-14T16:42:05.353Z,15.38
2023-05-14T16:44:32.402Z,15.35
2023-05-14T16:46:59.519Z,15.32
2023-05-14T16:49:26.548Z,15.12
2023-05-14T16:51:53.760Z,14.94
2023-05-14T16:54:20.695Z,15.09
2023-05-14T16:56:48.453Z,15.31
2023-05-14T16:59:16.310Z,15.35
2023-05-14T17:01:44.459Z,15.19
2023-05-14T17:04:11.648Z,15.29
2023-05-14T17:06:38.663Z,15.21
2023-05-14T17:09:07.221Z,15.26
2023-05-14T17:11:34.228Z,15.35
2023-05-14T17:14:01.265Z,15.04
2023-05-14T17:16:28.671Z,13.82
2023-05-14T17:18:56.013Z,14.75
2023-05-14T17:21:23.019Z,15.10
2023-05-14T17:23:50.182Z,15.26
2023-05-14T17:26:17.170Z,14.60
2023-05-14T17:28:44.344Z,14.94
2023-05-14T17:31:11.536Z,14.47
2023-05-14T17:33:38.558Z,14.66
2023-05-14T17:36:05.866Z,14.57
2023-05-14T17:38:32.756Z,14.59
2023-05-14T17:40:59.774Z,13.98
2023-05-14T17:43:26.720Z,14.25
2023-05-14T17:45:54.767Z,14.25
2023-05-14T17:48:23.299Z,14.05
2023-05-14T17:50:51.827Z,13.80
2023-05-14T17:53:19.051Z,13.72
2023-05-14T17:55:46.206Z,13.81
2023-05-14T17:58:15.577Z,13.85
2023-05-14T18:00:42.696Z,14.22
2023-05-14T18:03:10.525Z,13.75
2023-05-14T18:05:37.798Z,13.68
2023-05-14T18:08:05.051Z,13.21
2023-05-14T18:10:32.382Z,13.42
2023-05-14T18:12:59.476Z,13.80
2023-05-14T18:15:27.519Z,13.82
2023-05-14T18:17:54.766Z,12.92
2023-05-14T18:20:21.933Z,13.11
2023-05-14T18:22:50.781Z,13.42
2023-05-14T18:25:18.040Z,12.44
2023-05-14T18:27:45.679Z,13.30
2023-05-14T18:30:14.749Z,13.36
2023-05-14T18:32:43.949Z,13.60
2023-05-14T18:35:12.581Z,13.78
2023-05-14T18:37:39.914Z,13.60
2023-05-14T18:40:07.688Z,12.96
2023-05-14T18:42:35.120Z,13.39
2023-05-14T18:45:02.510Z,13.81
2023-05-14T18:47:30.698Z,13.87
2023-05-14T18:50:02.019Z,13.67
2023-05-14T18:52:29.548Z,13.72
2023-05-14T18:54:57.040Z,13.67
2023-05-14T18:57:24.152Z,13.58
2023-05-14T18:59:51.277Z,13.95
2023-05-14T19:02:18.296Z,13.80
2023-05-14T19:04:52.307Z,13.68
2023-05-14T19:07:20.427Z,13.97
2023-05-14T19:09:47.364Z,13.42
2023-05-14T19:12:14.624Z,13.66
2023-05-14T19:14:42.307Z,13.73
2023-05-14T19:17:09.336Z,13.91
2023-05-14T19:19:36.572Z,13.76
2023-05-14T19:22:03.922Z,13.80
2023-05-14T19:24:30.981Z,14.07
2023-05-14T19:26:58.194Z,13.50
2023-05-14T19:29:25.112Z,14.13
2023-05-14T19:31:52.204Z,13.64
2023-05-14T19:34:19.247Z,13.99
2023-05-14T19:36:46.329Z,13.92
2023-05-14T19:39:13.335Z,13.79
2023-05-14T19:41:40.480Z,14.21
2023-05-14T19:44:07.689Z,14.15
2023-05-14T19:46:34.718Z,14.04
2023-05-14T19:49:01.754Z,13.66
2023-05-14T19:51:28.958Z,13.78
2023-05-14T19:53:56.043Z,13.85
2023-05-14T19:56:24.695Z,13.82
2023-05-14T19:58:52.801Z,13.96
2023-05-14T20:01:21.144Z,13.83
2023-05-14T20:03:48.433Z,13.65
2023-05-14T20:06:15.667Z,13.45
2023-05-14T20:08:43.312Z,13.27
2023-05-14T20:11:10.675Z,13.72
2023-05-14T20:13:38.400Z,13.73
2023-05-14T20:16:05.990Z,13.67
2023-05-14T20:18:33.152Z,13.38
2023-05-14T20:21:00.238Z,13.65
2023-05-14T20:23:27.243Z,13.26
2023-05-14T20:25:54.170Z,13.07
2023-05-14T20:28:21.244Z,13.03
2023-05-14T20:30:48.313Z,13.27
2023-05-14T20:33:15.469Z,13.34
2023-05-14T20:35:44.109Z,12.85
2023-05-14T20:38:12.969Z,12.89
2023-05-14T20:40:40.482Z,12.91
2023-05-14T20:43:07.720Z,13.42
2023-05-14T20:45:34.800Z,13.39
2023-05-14T20:48:01.841Z,12.83
2023-05-14T20:50:28.957Z,13.14
2023-05-14T20:52:56.118Z,13.46
2023-05-14T20:55:23.551Z,13.06
2023-05-14T20:57:50.772Z,13.05
2023-05-14T21:00:18.263Z,13.33
2023-05-14T21:02:45.565Z,13.08
2023-05-14T21:05:14.080Z,12.87
2023-05-14T21:07:41.220Z,13.21
2023-05-14T21:10:09.138Z,12.93
2023-05-14T21:12:36.420Z,13.10
2023-05-14T21:15:03.500Z,13.16
2023-05-14T21:17:30.769Z,12.92
2023-05-14T21:19:58.128Z,13.20
2023-05-14T21:22:25.191Z,13.21
2023-05-14T21:24:52.156Z,13.12
2023-05-14T21:27:19.172Z,12.96
2023-05-14T21:29:46.598Z,13.11
2023-05-14T21:32:13.696Z,13.21
2023-05-14T21:34:40.665Z,12.10
2023-05-14T21:37:07.765Z,12.89
2023-05-14T21:39:34.710Z,13.27
2023-05-14T21:42:01.878Z,13.18
2023-05-14T21:44:28.831Z,13.18
2023-05-14T21:46:55.942Z,12.89
2023-05-14T21:49:22.851Z,13.23
2023-05-14T21:51:53.242Z,13.17
2023-05-14T21:54:21.092Z,12.88
2023-05-14T21:56:48.423Z,13.27
2023-05-14T21:59:15.488Z,13.02
2023-05-14T22:02:04.936Z,12.92
2023-05-14T22:04:29.839Z,12.67
2023-05-14T22:06:57.001Z,12.64
2023-05-14T22:09:24.758Z,12.89
2023-05-14T22:11:52.072Z,13.18
2023-05-14T22:14:18.993Z,13.05
2023-05-14T22:16:46.316Z,13.29
2023-05-14T22:19:13.458Z,13.21
2023-05-14T22:21:40.431Z,12.89
2023-05-14T22:24:07.642Z,13.18
2023-05-14T22:26:35.173Z,12.49
2023-05-14T22:29:02.108Z,12.65
2023-05-14T22:31:29.524Z,13.19
2023-05-14T22:33:56.481Z,13.06
2023-05-14T22:36:23.545Z,13.21
2023-05-14T22:38:50.709Z,13.05
2023-05-14T22:41:17.746Z,12.69
2023-05-14T22:43:44.726Z,12.48
2023-05-14T22:46:11.732Z,12.81
2023-05-14T22:48:38.671Z,12.82
2023-05-14T22:51:05.854Z,12.74
2023-05-14T22:53:32.789Z,12.92
2023-05-14T22:55:59.855Z,12.86
2023-05-14T22:58:26.826Z,12.57
2023-05-14T23:00:53.815Z,12.85
2023-05-14T23:03:20.877Z,12.83
2023-05-14T23:05:47.851Z,12.82
2023-05-14T23:08:14.909Z,12.56
2023-05-14T23:10:41.949Z,13.00
2023-05-14T23:13:09.025Z,12.71
2023-05-14T23:15:36.073Z,12.56
2023-05-14T23:18:03.073Z,13.02
2023-05-14T23:20:30.273Z,12.78
2023-05-14T23:22:57.203Z,12.62
2023-05-14T23:25:24.604Z,12.46
2023-05-14T23:27:52.304Z,12.23
2023-05-14T23:30:19.387Z,12.81
2023-05-14T23:32:46.311Z,12.81
2023-05-14T23:35:13.527Z,12.90
2023-05-14T23:37:47.303Z,12.89
2023-05-14T23:40:15.830Z,12.82
2023-05-14T23:42:43.701Z,12.43
2023-05-14T23:45:12.487Z,11.70
2023-05-14T23:47:40.638Z,12.27
2023-05-14T23:50:07.974Z,12.77
2023-05-14T23:52:35.021Z,12.71
2023-05-14T23:55:02.084Z,12.86
2023-05-14T23:57:29.148Z,12.89
2023-05-14T23:59:56.175Z,12.72
